Aviation Digital Data Service (ADDS)

Output produced by METARs form (0249 UTC 22 April 2019)
found at http://www.aviationweather.gov/metar/data/
 
Forecast for: EDDT (BERLIN/TEGEL (FA, DE)
Text: TAF EDDT 212300Z 2200/2224 06004KT CAVOK
Forecast period: 0000 to 0500 UTC 22 April 2019
Forecast type: FROM: standard forecast or significant change
Winds: from the ENE (60 degrees) at 5 MPH (4 knots; 2.1 m/s)
Visibility: 6 or more miles 10+ km)
Ceiling: unknown
Clouds: missing
Weather: NSW  (no significant weather)
Text: BECMG 2205/2207 09010KT
Forecast period: 0500 to 0900 UTC 22 April 2019
Forecast type: BECOMING: Conditions expected to become as follows by 0700 UTC 22 April 2019
Winds: from the E (90 degrees) at 12 MPH (10 knots; 5.1 m/s)
Visibility: 6 or more miles 10+ km)
Ceiling: unknown
Clouds: missing
Weather: NSW  (no significant weather)
Text: BECMG 2209/2211 09015G25KT
Forecast period: 0900 UTC 22 April 2019 to 0000 UTC 23 April 2019
Forecast type: BECOMING: Conditions expected to become as follows by 1100 UTC 22 April 2019
Winds: from the E (90 degrees) at 17 MPH (15 knots; 7.7 m/s)
gusting to 29 MPH (25 knots; 12.9 m/s)
Visibility: 6 or more miles 10+ km)
Ceiling: unknown
Clouds: missing
Weather: NSW  (no significant weather)